Time;durP1;ratioP1;P1;durP2;ratioP2;P2;SDS_P1;SDS_P2;PMS_P1;PMS_P2;Temp;Humidity;BMP_temperature;BMP_pressure;BME280_temperature;BME280_humidity;BME280_pressure;Samples;Min_cycle;Max_cycle;Signal;HPM_P1;HPM_P2
2022/10/27 00:01:25;;;;;;;;;;;;;;;11.11;100.00;101362.41;5535868;32;34919;-73
2022/10/27 00:04:32;;;;;;;;;;;;;;;11.02;100.00;101367.78;5549985;32;34723;-72
2022/10/27 00:07:38;;;;;;;;;;;;;;;10.87;100.00;101370.91;5536638;32;34840;-72
2022/10/27 00:10:44;;;;;;;;;;;;;;;10.78;100.00;101376.25;5549937;32;34195;-73
2022/10/27 00:13:51;;;;;;;;;;;;;;;10.72;100.00;101375.00;5549829;32;34868;-72
2022/10/27 00:16:58;;;;;;;;;;;;;;;10.75;100.00;101373.88;5549708;32;34131;-72
2022/10/27 00:20:05;;;;;;;;;;;;;;;10.82;100.00;101377.62;5549644;32;34375;-73
2022/10/27 00:23:11;;;;;;;;;;;;;;;10.89;100.00;101374.25;5549761;32;34641;-73
2022/10/27 00:26:20;;;;;;;;;;;;;;;10.98;100.00;101374.38;5549789;32;34315;-73
2022/10/27 00:29:26;;;;;;;;;;;;;;;11.04;100.00;101373.75;5536263;32;34896;-73
2022/10/27 00:32:31;;;;;;;;;;;;;;;11.09;100.00;101388.28;5549979;32;34184;-73
2022/10/27 00:35:39;;;;;;;;;;;;;;;11.13;100.00;101391.50;5549594;32;34451;-72
2022/10/27 00:38:47;;;;;;;;;;;;;;;11.18;100.00;101387.41;5535585;32;35099;-73
2022/10/27 00:41:53;;;;;;;;;;;;;;;11.22;100.00;101369.37;5549463;32;35013;-73
2022/10/27 00:45:02;;;;;;;;;;;;;;;11.26;100.00;101381.38;5549314;32;34896;-72
2022/10/27 00:48:10;;;;;;;;;;;;;;;11.27;100.00;101391.84;5549209;32;34932;-72
2022/10/27 00:51:17;;;;;;;;;;;;;;;11.34;100.00;101392.06;5549479;32;34857;-73
2022/10/27 00:54:24;;;;;;;;;;;;;;;11.37;100.00;101391.81;5548930;32;35061;-72
2022/10/27 00:57:32;;;;;;;;;;;;;;;11.40;100.00;101394.16;5548937;32;34890;-73
2022/10/27 01:00:40;;;;;;;;;;;;;;;11.44;100.00;101395.53;5548993;32;34431;-73
2022/10/27 01:03:52;;;;;;;;;;;;;;;11.51;100.00;101395.78;5549934;32;34990;-72
2022/10/27 01:07:00;;;;;;;;;;;;;;;11.52;100.00;101392.13;5551825;32;34587;-72
2022/10/27 01:10:08;;;;;;;;;;;;;;;11.53;100.00;101396.44;5538501;32;35229;-72
2022/10/27 01:13:17;;;;;;;;;;;;;;;11.50;100.00;101397.59;5551660;32;34954;-72
2022/10/27 01:16:32;;;;;;;;;;;;;;;11.52;100.00;101398.25;5551584;32;34577;-72
2022/10/27 01:19:48;;;;;;;;;;;;;;;11.58;100.00;101400.31;5551517;32;34647;-72
2022/10/27 01:23:08;;;;;;;;;;;;;;;11.59;100.00;101401.16;5538549;32;35221;-72
2022/10/27 01:26:28;;;;;;;;;;;;;;;11.64;100.00;101413.03;5551640;32;34938;-72
2022/10/27 01:29:40;;;;;;;;;;;;;;;11.61;100.00;101402.72;5551766;32;34967;-72
2022/10/27 01:33:01;;;;;;;;;;;;;;;11.62;100.00;101408.81;5551468;32;34409;-72
2022/10/27 01:36:14;;;;;;;;;;;;;;;11.67;100.00;101415.38;5537596;32;34458;-72
2022/10/27 01:39:28;;;;;;;;;;;;;;;11.66;100.00;101411.06;5538352;32;34511;-72
2022/10/27 01:42:40;;;;;;;;;;;;;;;11.59;100.00;101415.28;5538062;32;35137;-72
2022/10/27 01:45:46;;;;;;;;;;;;;;;11.54;100.00;101414.91;5551358;32;35283;-72
2022/10/27 01:48:53;;;;;;;;;;;;;;;11.50;100.00;101410.88;5538070;32;34646;-72
2022/10/27 01:52:05;;;;;;;;;;;;;;;11.48;100.00;101418.16;5551279;32;35063;-72
2022/10/27 01:55:16;;;;;;;;;;;;;;;11.50;100.00;101412.69;5551301;32;35177;-73
2022/10/27 01:58:22;;;;;;;;;;;;;;;11.51;100.00;101412.56;5551240;32;34851;-72
2022/10/27 02:01:54;;;;;;;;;;;;;;;11.46;100.00;101421.94;5551268;32;34546;-72
2022/10/27 02:05:20;;;;;;;;;;;;;;;11.47;100.00;101421.81;5551177;32;35236;-72
2022/10/27 02:08:35;;;;;;;;;;;;;;;11.41;100.00;101426.87;5551112;32;35294;-72
2022/10/27 02:11:47;;;;;;;;;;;;;;;11.36;100.00;101429.97;5551329;32;34457;-73
2022/10/27 02:14:57;;;;;;;;;;;;;;;11.31;100.00;101432.22;5550263;32;35134;-72
2022/10/27 02:18:06;;;;;;;;;;;;;;;11.38;100.00;101427.97;5550798;32;34563;-72
2022/10/27 02:21:14;;;;;;;;;;;;;;;11.22;100.00;101431.28;5550939;32;35080;-72
2022/10/27 02:24:21;;;;;;;;;;;;;;;11.21;100.00;101429.63;5551297;32;34494;-72
2022/10/27 02:27:35;;;;;;;;;;;;;;;11.11;100.00;101430.63;5550992;32;34619;-72
2022/10/27 02:30:46;;;;;;;;;;;;;;;11.07;100.00;101423.94;5551061;32;34499;-72
2022/10/27 02:33:55;;;;;;;;;;;;;;;11.03;100.00;101426.06;5536862;32;35217;-72
2022/10/27 02:37:03;;;;;;;;;;;;;;;10.94;100.00;101426.91;5550838;32;35180;-72
2022/10/27 02:40:11;;;;;;;;;;;;;;;10.95;100.00;101425.09;5550900;32;35020;-71
2022/10/27 02:43:20;;;;;;;;;;;;;;;10.89;100.00;101434.50;5550908;32;34551;-73
2022/10/27 02:46:26;;;;;;;;;;;;;;;10.92;100.00;101436.84;5524789;32;34988;-71
2022/10/27 02:49:35;;;;;;;;;;;;;;;10.96;100.00;101440.87;5550863;32;35191;-72
2022/10/27 02:52:43;;;;;;;;;;;;;;;10.99;100.00;101435.28;5551030;32;34575;-73
2022/10/27 02:55:51;;;;;;;;;;;;;;;11.02;100.00;101434.16;5550912;32;35053;-73
2022/10/27 02:59:00;;;;;;;;;;;;;;;11.09;100.00;101430.78;5550819;32;35117;-73
2022/10/27 03:02:06;;;;;;;;;;;;;;;11.10;100.00;101435.09;5524658;32;34968;-73
2022/10/27 03:05:14;;;;;;;;;;;;;;;11.14;100.00;101433.81;5550775;32;34675;-72
2022/10/27 03:08:21;;;;;;;;;;;;;;;11.12;100.00;101441.13;5550914;32;34537;-73
2022/10/27 03:11:27;;;;;;;;;;;;;;;11.15;100.00;101442.63;5550822;32;34557;-74
2022/10/27 03:14:35;;;;;;;;;;;;;;;11.21;100.00;101450.03;5536942;32;35388;-73
2022/10/27 03:17:45;;;;;;;;;;;;;;;11.29;100.00;101450.97;5550666;32;35218;-73
2022/10/27 03:20:55;;;;;;;;;;;;;;;11.32;100.00;101440.06;5550565;32;34536;-73
2022/10/27 03:24:05;;;;;;;;;;;;;;;11.34;100.00;101447.88;5550812;32;34641;-73
2022/10/27 03:27:13;;;;;;;;;;;;;;;11.39;100.00;101447.41;5549905;32;34551;-73
2022/10/27 03:30:19;;;;;;;;;;;;;;;11.33;100.00;101459.47;5550379;32;34608;-73
2022/10/27 03:33:27;;;;;;;;;;;;;;;11.35;100.00;101454.84;5550485;32;34489;-73
2022/10/27 03:36:32;;;;;;;;;;;;;;;11.38;100.00;101456.38;5550554;32;34924;-72
2022/10/27 03:39:42;;;;;;;;;;;;;;;11.26;100.00;101461.91;5550423;32;34553;-73
2022/10/27 03:42:56;;;;;;;;;;;;;;;11.23;100.00;101462.16;5550486;32;35172;-73
2022/10/27 03:46:07;;;;;;;;;;;;;;;11.21;100.00;101458.84;5550362;32;34650;-73
2022/10/27 03:49:14;;;;;;;;;;;;;;;11.23;100.00;101467.47;5550270;32;34490;-73
2022/10/27 03:52:22;;;;;;;;;;;;;;;11.23;100.00;101462.16;5537182;32;34777;-73
2022/10/27 03:55:34;;;;;;;;;;;;;;;11.25;100.00;101468.19;5550191;32;35179;-73
2022/10/27 03:58:41;;;;;;;;;;;;;;;11.24;100.00;101463.00;5550123;32;34564;-72
2022/10/27 04:01:48;;;;;;;;;;;;;;;11.18;100.00;101463.59;5550116;32;34467;-73
2022/10/27 04:04:58;;;;;;;;;;;;;;;11.18;100.00;101463.59;5536301;32;35342;-72
2022/10/27 04:08:04;;;;;;;;;;;;;;;11.31;100.00;101472.91;5549953;32;34595;-73
2022/10/27 04:11:12;;;;;;;;;;;;;;;11.27;100.00;101466.22;5535875;32;34734;-73
2022/10/27 04:14:20;;;;;;;;;;;;;;;11.27;100.00;101458.25;5536163;32;35458;-73
2022/10/27 04:17:27;;;;;;;;;;;;;;;11.26;100.00;101466.38;5549917;32;34592;-73
2022/10/27 04:20:33;;;;;;;;;;;;;;;11.36;100.00;101474.28;5549759;32;34489;-72
2022/10/27 04:23:39;;;;;;;;;;;;;;;11.44;100.00;101474.37;5549607;32;34695;-73
2022/10/27 04:26:45;;;;;;;;;;;;;;;11.31;100.00;101483.53;5549250;32;35182;-73
2022/10/27 04:29:52;;;;;;;;;;;;;;;11.39;100.00;101481.97;5549450;32;35064;-73
2022/10/27 04:32:59;;;;;;;;;;;;;;;11.45;100.00;101484.03;5549611;32;34456;-72
2022/10/27 04:36:06;;;;;;;;;;;;;;;11.43;100.00;101493.97;5549458;32;34850;-72
2022/10/27 04:39:14;;;;;;;;;;;;;;;11.33;100.00;101491.34;5550708;32;34631;-71
2022/10/27 04:42:22;;;;;;;;;;;;;;;11.29;100.00;101496.12;5538217;32;34497;-72
2022/10/27 04:45:28;;;;;;;;;;;;;;;11.26;100.00;101490.28;5551948;32;34472;-72
2022/10/27 04:48:34;;;;;;;;;;;;;;;11.29;100.00;101497.94;5537897;32;35017;-72
2022/10/27 04:51:39;;;;;;;;;;;;;;;11.34;100.00;101501.84;5552168;32;34393;-71
2022/10/27 04:54:49;;;;;;;;;;;;;;;11.32;100.00;101503.81;5551878;32;34964;-71
2022/10/27 04:57:55;;;;;;;;;;;;;;;11.29;100.00;101504.09;5537399;32;34579;-71
2022/10/27 05:01:05;;;;;;;;;;;;;;;11.27;100.00;101506.06;5551871;32;34884;-71
2022/10/27 05:04:11;;;;;;;;;;;;;;;11.27;100.00;101518.53;5551767;32;35354;-71
2022/10/27 05:07:17;;;;;;;;;;;;;;;11.31;100.00;101503.97;5552051;32;35057;-72
2022/10/27 05:10:22;;;;;;;;;;;;;;;11.31;100.00;101509.28;5551643;32;34634;-71
2022/10/27 05:13:27;;;;;;;;;;;;;;;11.34;100.00;101509.81;5538211;32;34441;-72
2022/10/27 05:16:32;;;;;;;;;;;;;;;11.44;100.00;101507.13;5551639;32;35049;-71
2022/10/27 05:19:38;;;;;;;;;;;;;;;11.48;100.00;101512.97;5537239;32;34652;-72
2022/10/27 05:22:43;;;;;;;;;;;;;;;11.44;100.00;101508.94;5537133;32;34545;-72
2022/10/27 05:25:51;;;;;;;;;;;;;;;11.48;100.00;101520.94;5537772;32;35033;-71
2022/10/27 05:28:54;;;;;;;;;;;;;;;11.47;100.00;101517.47;5551604;32;34871;-71
2022/10/27 05:31:59;;;;;;;;;;;;;;;11.43;100.00;101518.72;5551329;32;34253;-71
2022/10/27 05:35:04;;;;;;;;;;;;;;;11.44;100.00;101527.53;5551254;32;35206;-72
2022/10/27 05:38:09;;;;;;;;;;;;;;;11.47;100.00;101541.38;5551316;32;35201;-71
2022/10/27 05:41:13;;;;;;;;;;;;;;;11.52;100.00;101531.13;5551445;32;34586;-72
2022/10/27 05:44:17;;;;;;;;;;;;;;;11.56;100.00;101531.69;5551148;32;34494;-71
2022/10/27 05:47:20;;;;;;;;;;;;;;;11.53;100.00;101540.78;5551223;32;34517;-71
2022/10/27 05:50:23;;;;;;;;;;;;;;;11.63;100.00;101546.06;5550456;32;35167;-71
2022/10/27 05:53:26;;;;;;;;;;;;;;;11.62;100.00;101547.88;5537562;32;35446;-71
2022/10/27 05:56:29;;;;;;;;;;;;;;;11.64;100.00;101545.09;5536448;32;34367;-72
2022/10/27 05:59:33;;;;;;;;;;;;;;;11.62;100.00;101550.53;5550517;32;35387;-71
2022/10/27 06:02:37;;;;;;;;;;;;;;;11.59;100.00;101550.84;5551007;32;34580;-71
2022/10/27 06:05:40;;;;;;;;;;;;;;;11.64;100.00;101553.06;5537506;32;34602;-73
2022/10/27 06:08:43;;;;;;;;;;;;;;;11.72;100.00;101563.78;5550800;32;35175;-71
2022/10/27 06:11:47;;;;;;;;;;;;;;;11.92;100.00;101556.59;5550745;32;34492;-71
2022/10/27 06:14:51;;;;;;;;;;;;;;;11.86;100.00;101563.34;5536831;32;34380;-71
2022/10/27 06:17:55;;;;;;;;;;;;;;;12.01;100.00;101575.16;5550672;32;34608;-71
2022/10/27 06:20:58;;;;;;;;;;;;;;;11.99;100.00;101571.84;5550793;32;35106;-71
2022/10/27 06:24:02;;;;;;;;;;;;;;;12.05;100.00;101579.19;5537385;32;34384;-71
2022/10/27 06:27:10;;;;;;;;;;;;;;;12.05;100.00;101583.72;5550710;32;34376;-72
2022/10/27 06:30:14;;;;;;;;;;;;;;;12.04;100.00;101587.34;5536251;32;34454;-72
2022/10/27 06:33:18;;;;;;;;;;;;;;;12.15;100.00;101589.81;5550542;32;35240;-71
2022/10/27 06:36:22;;;;;;;;;;;;;;;12.22;100.00;101598.03;5550738;32;34418;-71
2022/10/27 06:39:26;;;;;;;;;;;;;;;12.17;100.00;101591.31;5536356;32;32981;-71
2022/10/27 06:42:30;;;;;;;;;;;;;;;12.16;100.00;101599.44;5550696;32;35198;-72
2022/10/27 06:45:53;;;;;;;;;;;;;;;12.27;100.00;101601.06;5539155;32;34664;-72
2022/10/27 06:49:01;;;;;;;;;;;;;;;12.29;100.00;101602.63;5550304;32;35145;-71
2022/10/27 06:52:05;;;;;;;;;;;;;;;12.42;100.00;101610.22;5550469;32;35157;-71
2022/10/27 06:55:08;;;;;;;;;;;;;;;12.23;100.00;101624.50;5550388;32;35223;-71
2022/10/27 06:58:12;;;;;;;;;;;;;;;12.11;100.00;101617.66;5550271;32;35152;-71
2022/10/27 07:01:16;;;;;;;;;;;;;;;12.05;100.00;101607.66;5549564;32;34426;-72
2022/10/27 07:04:19;;;;;;;;;;;;;;;12.12;100.00;101614.03;5524080;32;33578;-71
2022/10/27 07:07:23;;;;;;;;;;;;;;;12.49;100.00;101616.63;5536995;32;33823;-72
2022/10/27 07:10:26;;;;;;;;;;;;;;;12.69;100.00;101619.97;5550875;32;35091;-72
2022/10/27 07:13:29;;;;;;;;;;;;;;;12.76;100.00;101626.37;5550609;32;34415;-71
2022/10/27 07:16:33;;;;;;;;;;;;;;;12.83;100.00;101622.16;5550419;32;35103;-72
2022/10/27 07:19:36;;;;;;;;;;;;;;;12.67;100.00;101633.47;5536992;32;35072;-72
2022/10/27 07:22:40;;;;;;;;;;;;;;;12.69;100.00;101642.12;5537079;32;35234;-71
2022/10/27 07:25:46;;;;;;;;;;;;;;;12.48;100.00;101639.75;5537044;32;34469;-70
2022/10/27 07:28:49;;;;;;;;;;;;;;;12.45;100.00;101645.34;5536620;32;33817;-71
2022/10/27 07:31:55;;;;;;;;;;;;;;;12.41;100.00;101645.81;5550262;32;34573;-71
2022/10/27 07:35:00;;;;;;;;;;;;;;;12.44;100.00;101643.69;5536631;32;34462;-70
2022/10/27 07:38:05;;;;;;;;;;;;;;;12.47;100.00;101655.88;5536536;32;34470;-71
2022/10/27 07:41:08;;;;;;;;;;;;;;;12.58;100.00;101659.16;5550432;32;34383;-71
2022/10/27 07:44:11;;;;;;;;;;;;;;;12.89;100.00;101669.44;5523742;32;34919;-72
2022/10/27 07:47:15;;;;;;;;;;;;;;;12.68;100.00;101671.56;5536683;32;35126;-71
2022/10/27 07:50:21;;;;;;;;;;;;;;;12.75;100.00;101672.62;5537698;32;34532;-70
2022/10/27 07:53:29;;;;;;;;;;;;;;;12.78;100.00;101673.16;5550010;32;34654;-71
2022/10/27 07:56:35;;;;;;;;;;;;;;;12.77;100.00;101676.84;5549988;32;35074;-70
2022/10/27 07:59:39;;;;;;;;;;;;;;;12.54;100.00;101678.22;5536060;32;34592;-71
2022/10/27 08:02:43;;;;;;;;;;;;;;;12.69;100.00;101683.88;5535493;32;34876;-71
2022/10/27 08:05:46;;;;;;;;;;;;;;;13.02;100.00;101689.41;5535147;32;34817;-71
2022/10/27 08:08:49;;;;;;;;;;;;;;;13.04;100.00;101699.91;5548858;32;34424;-71
2022/10/27 08:11:52;;;;;;;;;;;;;;;13.08;100.00;101702.13;5535562;32;36476;-71
2022/10/27 08:14:55;;;;;;;;;;;;;;;13.07;100.00;101711.09;5551712;32;34375;-72
2022/10/27 08:18:00;;;;;;;;;;;;;;;12.89;100.00;101714.72;5552350;32;34867;-72
2022/10/27 08:21:04;;;;;;;;;;;;;;;13.20;100.00;101716.09;5552195;32;34439;-71
2022/10/27 08:24:08;;;;;;;;;;;;;;;13.33;100.00;101713.88;5552119;32;35145;-71
2022/10/27 08:27:11;;;;;;;;;;;;;;;13.48;100.00;101716.84;5552113;32;34605;-71
2022/10/27 08:30:14;;;;;;;;;;;;;;;13.24;100.00;101716.62;5551683;32;34822;-71
2022/10/27 08:33:19;;;;;;;;;;;;;;;13.51;100.00;101721.84;5551762;32;34628;-70
2022/10/27 08:36:22;;;;;;;;;;;;;;;13.46;100.00;101719.66;5537045;32;35202;-70
2022/10/27 08:39:26;;;;;;;;;;;;;;;13.43;100.00;101713.78;5537051;32;34886;-71
2022/10/27 08:42:48;;;;;;;;;;;;;;;13.57;100.00;101712.41;5551957;32;35067;-71
2022/10/27 08:45:55;;;;;;;;;;;;;;;13.66;100.00;101722.13;5551676;32;35168;-71
2022/10/27 08:49:05;;;;;;;;;;;;;;;13.59;100.00;101713.94;5551597;32;34520;-71
2022/10/27 08:52:14;;;;;;;;;;;;;;;13.63;100.00;101714.44;5537644;32;34297;-71
2022/10/27 08:55:22;;;;;;;;;;;;;;;13.58;100.00;101714.06;5551329;32;34478;-71
2022/10/27 08:58:39;;;;;;;;;;;;;;;13.58;100.00;101717.59;5537661;32;36910;-71
2022/10/27 09:01:47;;;;;;;;;;;;;;;13.66;100.00;101719.47;5537716;32;35515;-71
2022/10/27 09:05:14;;;;;;;;;;;;;;;13.77;100.00;101725.41;5551571;32;34484;-71
2022/10/27 09:08:35;;;;;;;;;;;;;;;13.67;100.00;101721.97;5545096;32;34755;-71
2022/10/27 09:11:44;;;;;;;;;;;;;;;13.66;100.00;101714.13;5551554;32;35139;-71
2022/10/27 09:15:01;;;;;;;;;;;;;;;13.96;100.00;101723.50;5551923;32;34255;-71
2022/10/27 09:18:21;;;;;;;;;;;;;;;14.20;100.00;101718.31;5537730;32;34343;-72
2022/10/27 09:21:26;;;;;;;;;;;;;;;14.24;100.00;101714.34;5538360;32;34895;-72
2022/10/27 09:24:30;;;;;;;;;;;;;;;14.20;100.00;101716.50;5550999;32;34925;-72
2022/10/27 09:27:35;;;;;;;;;;;;;;;14.33;100.00;101729.41;5537538;32;34608;-72
2022/10/27 09:30:39;;;;;;;;;;;;;;;14.19;100.00;101725.50;5551156;32;34657;-72
2022/10/27 09:33:54;;;;;;;;;;;;;;;13.85;100.00;101729.94;5551210;32;34541;-71
2022/10/27 09:36:57;;;;;;;;;;;;;;;13.64;100.00;101730.31;5551249;32;35250;-71
2022/10/27 09:40:01;;;;;;;;;;;;;;;13.67;100.00;101731.81;5537331;32;34478;-71
2022/10/27 09:43:08;;;;;;;;;;;;;;;14.05;100.00;101727.91;5551106;32;34581;-71
2022/10/27 09:46:23;;;;;;;;;;;;;;;14.05;100.00;101736.75;5553058;32;34935;-70
2022/10/27 09:49:38;;;;;;;;;;;;;;;14.09;100.00;101726.59;5551355;32;34670;-70
2022/10/27 09:52:45;;;;;;;;;;;;;;;13.83;100.00;101727.44;5551677;32;34619;-70
2022/10/27 09:55:51;;;;;;;;;;;;;;;14.00;100.00;101719.53;5537415;32;34500;-71
2022/10/27 09:59:04;;;;;;;;;;;;;;;13.97;100.00;101731.38;5551104;32;35113;-71
2022/10/27 10:02:26;;;;;;;;;;;;;;;13.61;100.00;101730.59;5537457;32;34298;-72
2022/10/27 10:05:33;;;;;;;;;;;;;;;13.75;100.00;101731.87;5537377;32;35120;-72
2022/10/27 10:08:38;;;;;;;;;;;;;;;13.97;100.00;101731.38;5537372;32;35086;-71
2022/10/27 10:11:41;;;;;;;;;;;;;;;14.27;100.00;101735.41;5551121;32;35209;-70
2022/10/27 10:14:45;;;;;;;;;;;;;;;14.54;100.00;101734.38;5550974;32;34572;-71
2022/10/27 10:17:58;;;;;;;;;;;;;;;14.46;100.00;101737.84;5551070;32;35022;-71
2022/10/27 10:21:04;;;;;;;;;;;;;;;14.27;100.00;101727.38;5550149;32;34926;-71
2022/10/27 10:24:14;;;;;;;;;;;;;;;14.30;100.00;101733.22;5550944;32;34903;-71
2022/10/27 10:27:25;;;;;;;;;;;;;;;14.23;100.00;101732.19;5550553;32;34588;-70
2022/10/27 10:30:31;;;;;;;;;;;;;;;14.02;100.00;101733.56;5537497;32;34929;-71
2022/10/27 10:33:37;;;;;;;;;;;;;;;14.31;100.00;101742.09;5550792;32;35139;-71
2022/10/27 10:36:42;;;;;;;;;;;;;;;14.18;100.00;101736.34;5536069;32;34556;-70
2022/10/27 10:39:46;;;;;;;;;;;;;;;14.40;100.00;101734.97;5551001;32;35197;-71
2022/10/27 10:42:59;;;;;;;;;;;;;;;14.48;100.00;101743.00;5525412;32;35506;-71
2022/10/27 10:46:03;;;;;;;;;;;;;;;14.29;100.00;101734.22;5550811;32;34504;-71
2022/10/27 10:49:18;;;;;;;;;;;;;;;14.20;100.00;101732.50;5524589;32;32879;-71
2022/10/27 10:52:24;;;;;;;;;;;;;;;14.46;100.00;101734.34;5536882;32;35865;-71
2022/10/27 10:55:35;;;;;;;;;;;;;;;14.35;100.00;101732.75;5536765;32;35754;-71
2022/10/27 10:58:41;;;;;;;;;;;;;;;14.48;100.00;101732.34;5550496;32;35138;-73
2022/10/27 11:01:59;;;;;;;;;;;;;;;14.52;100.00;101728.37;5550850;32;34529;-71
2022/10/27 11:05:10;;;;;;;;;;;;;;;14.68;100.00;101723.91;5524263;32;34442;-71
2022/10/27 11:08:18;;;;;;;;;;;;;;;14.47;100.00;101728.84;5549709;32;34269;-71
2022/10/27 11:11:23;;;;;;;;;;;;;;;14.46;100.00;101731.69;5550963;32;34958;-72
2022/10/27 11:14:27;;;;;;;;;;;;;;;14.72;100.00;101732.44;5550854;32;34450;-71
2022/10/27 11:17:31;;;;;;;;;;;;;;;14.45;100.00;101730.84;5550460;32;34444;-71
2022/10/27 11:20:35;;;;;;;;;;;;;;;14.19;100.00;101727.31;5550422;32;35079;-71
2022/10/27 11:23:41;;;;;;;;;;;;;;;14.13;100.00;101723.47;5536405;32;33488;-72
2022/10/27 11:26:51;;;;;;;;;;;;;;;14.35;100.00;101725.59;5535991;32;33260;-72
2022/10/27 11:29:57;;;;;;;;;;;;;;;14.86;100.00;101726.50;5549250;32;34506;-71
2022/10/27 11:33:07;;;;;;;;;;;;;;;15.09;100.00;101727.53;5550513;32;35348;-70
2022/10/27 11:36:15;;;;;;;;;;;;;;;14.83;100.00;101718.78;5550339;32;34566;-71
2022/10/27 11:39:34;;;;;;;;;;;;;;;14.51;100.00;101716.00;5550037;32;35136;-70
2022/10/27 11:42:44;;;;;;;;;;;;;;;14.78;100.00;101724.63;5550217;32;35014;-70
2022/10/27 11:45:51;;;;;;;;;;;;;;;14.28;100.00;101721.06;5550627;32;35103;-70
2022/10/27 11:48:58;;;;;;;;;;;;;;;14.37;100.00;101722.81;5549621;32;35150;-70
2022/10/27 11:52:27;;;;;;;;;;;;;;;14.22;100.00;101717.19;5536523;32;34608;-70
2022/10/27 11:55:45;;;;;;;;;;;;;;;14.62;100.00;101719.22;5547699;32;34556;-71
2022/10/27 11:59:09;;;;;;;;;;;;;;;14.90;100.00;101713.62;5536169;32;34552;-71
2022/10/27 12:02:19;;;;;;;;;;;;;;;15.26;100.00;101714.19;5549335;32;34341;-71
2022/10/27 12:05:28;;;;;;;;;;;;;;;15.33;100.00;101712.53;5536198;32;33168;-70
2022/10/27 12:08:35;;;;;;;;;;;;;;;15.13;100.00;101704.81;5549829;32;34526;-71
2022/10/27 12:11:38;;;;;;;;;;;;;;;14.86;100.00;101697.09;5549727;32;35060;-71
2022/10/27 12:14:51;;;;;;;;;;;;;;;14.96;100.00;101702.31;5535711;32;35008;-71
2022/10/27 12:17:57;;;;;;;;;;;;;;;14.72;100.00;101690.53;5545077;32;148484;-71
2022/10/27 12:21:13;;;;;;;;;;;;;;;15.19;100.00;101689.97;5549434;32;34539;-71
2022/10/27 12:24:20;;;;;;;;;;;;;;;15.51;100.00;101687.31;5549883;32;34591;-70
2022/10/27 12:27:24;;;;;;;;;;;;;;;14.96;100.00;101691.63;5535799;32;33019;-71
2022/10/27 12:30:27;;;;;;;;;;;;;;;14.98;100.00;101684.25;5523071;32;35412;-71
2022/10/27 12:33:38;;;;;;;;;;;;;;;14.99;100.00;101678.75;5535840;32;34902;-71
2022/10/27 12:36:47;;;;;;;;;;;;;;;15.07;100.00;101677.91;5535749;32;35269;-70
2022/10/27 12:39:52;;;;;;;;;;;;;;;15.28;100.00;101685.44;5549287;32;34735;-70
2022/10/27 12:42:54;;;;;;;;;;;;;;;14.96;100.00;101679.06;5549128;32;34557;-71
2022/10/27 12:46:14;;;;;;;;;;;;;;;15.14;100.00;101676.25;5549204;32;34546;-71
2022/10/27 12:49:36;;;;;;;;;;;;;;;14.86;100.00;101678.41;5549202;32;34855;-71
2022/10/27 12:52:48;;;;;;;;;;;;;;;15.05;100.00;101679.94;5535273;32;34479;-71
2022/10/27 12:56:04;;;;;;;;;;;;;;;15.20;100.00;101681.75;5535121;32;34593;-70
2022/10/27 12:59:15;;;;;;;;;;;;;;;14.79;100.00;101683.53;5549049;32;34572;-71
2022/10/27 13:02:22;;;;;;;;;;;;;;;14.91;100.00;101685.91;5537284;32;35282;-71
2022/10/27 13:05:29;;;;;;;;;;;;;;;14.94;100.00;101686.41;5551499;32;35167;-71
2022/10/27 13:08:54;;;;;;;;;;;;;;;14.67;100.00;101678.66;5537770;32;32780;-72
2022/10/27 13:12:06;;;;;;;;;;;;;;;15.10;100.00;101682.94;5551340;32;34761;-72
2022/10/27 13:15:18;;;;;;;;;;;;;;;15.03;100.00;101681.91;5537199;32;34703;-71
2022/10/27 13:18:33;;;;;;;;;;;;;;;14.61;100.00;101680.16;5551358;32;34266;-72
2022/10/27 13:21:42;;;;;;;;;;;;;;;14.86;100.00;101677.56;5537392;32;35293;-72
2022/10/27 13:24:51;;;;;;;;;;;;;;;14.81;100.00;101674.53;5551293;32;35155;-71
2022/10/27 13:28:12;;;;;;;;;;;;;;;14.83;100.00;101673.38;5551163;32;34561;-72
2022/10/27 13:31:19;;;;;;;;;;;;;;;14.58;100.00;101669.78;5537433;32;34538;-71
2022/10/27 13:34:22;;;;;;;;;;;;;;;14.60;100.00;101675.81;5551119;32;35176;-72
2022/10/27 13:37:39;;;;;;;;;;;;;;;14.68;100.00;101683.00;5550983;32;34679;-72
2022/10/27 13:40:43;;;;;;;;;;;;;;;14.61;100.00;101674.81;5551195;32;35140;-72
2022/10/27 13:43:46;;;;;;;;;;;;;;;14.56;100.00;101689.66;5551388;32;34386;-71
2022/10/27 13:47:02;;;;;;;;;;;;;;;14.69;100.00;101685.53;5550898;32;34590;-71
2022/10/27 13:50:25;;;;;;;;;;;;;;;14.66;100.00;101685.03;5550828;32;34446;-71
2022/10/27 13:53:28;;;;;;;;;;;;;;;14.49;100.00;101694.78;5536568;32;34502;-70
2022/10/27 13:56:36;;;;;;;;;;;;;;;14.16;100.00;101684.94;5536273;32;36857;-72
2022/10/27 13:59:43;;;;;;;;;;;;;;;14.38;100.00;101683.59;5550941;32;34447;-72
2022/10/27 14:02:54;;;;;;;;;;;;;;;14.14;100.00;101690.44;5550596;32;34993;-72
2022/10/27 14:05:59;;;;;;;;;;;;;;;14.05;100.00;101687.87;5537263;32;34609;-71
2022/10/27 14:09:21;;;;;;;;;;;;;;;14.01;100.00;101697.19;5550702;32;34864;-70
2022/10/27 14:12:33;;;;;;;;;;;;;;;13.85;100.00;101682.75;5550304;32;35329;-72
2022/10/27 14:15:38;;;;;;;;;;;;;;;14.03;100.00;101681.88;5536781;32;35380;-70
2022/10/27 14:18:43;;;;;;;;;;;;;;;13.97;100.00;101695.84;5550791;32;35141;-70
2022/10/27 14:21:48;;;;;;;;;;;;;;;13.88;100.00;101685.13;5524217;32;34831;-70
2022/10/27 14:24:58;;;;;;;;;;;;;;;14.06;100.00;101690.41;5550523;32;34945;-71
2022/10/27 14:28:06;;;;;;;;;;;;;;;13.91;100.00;101692.81;5536586;32;34357;-71
2022/10/27 14:31:19;;;;;;;;;;;;;;;13.80;100.00;101693.06;5536799;32;34545;-72
2022/10/27 14:34:24;;;;;;;;;;;;;;;13.87;100.00;101694.13;5536604;32;32823;-72
2022/10/27 14:37:29;;;;;;;;;;;;;;;13.84;100.00;101685.59;5536565;32;35879;-71
2022/10/27 14:40:37;;;;;;;;;;;;;;;14.09;100.00;101686.56;5536436;32;34559;-71
2022/10/27 14:43:44;;;;;;;;;;;;;;;14.06;100.00;101684.22;5536424;32;34527;-71
2022/10/27 14:46:49;;;;;;;;;;;;;;;13.82;100.00;101688.44;5549779;32;34894;-71
2022/10/27 14:49:55;;;;;;;;;;;;;;;13.69;100.00;101687.16;5549408;32;35168;-70
2022/10/27 14:53:03;;;;;;;;;;;;;;;13.58;100.00;101693.59;5549357;32;34863;-70
2022/10/27 14:56:19;;;;;;;;;;;;;;;13.56;100.00;101692.06;5550192;32;34958;-72
2022/10/27 14:59:28;;;;;;;;;;;;;;;13.55;100.00;101696.56;5549823;32;35079;-71
2022/10/27 15:02:32;;;;;;;;;;;;;;;13.66;100.00;101692.78;5535625;32;34913;-70
2022/10/27 15:05:46;;;;;;;;;;;;;;;13.62;100.00;101702.94;5523158;32;35002;-71
2022/10/27 15:08:51;;;;;;;;;;;;;;;13.59;100.00;101697.09;5523572;32;34475;-71
2022/10/27 15:11:54;;;;;;;;;;;;;;;13.46;100.00;101702.81;5536081;32;36966;-71
2022/10/27 15:14:59;;;;;;;;;;;;;;;13.41;100.00;101703.28;5536293;32;35326;-71
2022/10/27 15:18:05;;;;;;;;;;;;;;;13.48;100.00;101700.84;5549878;32;34476;-71
2022/10/27 15:21:20;;;;;;;;;;;;;;;13.49;100.00;101695.34;5550167;32;34504;-71
2022/10/27 15:24:25;;;;;;;;;;;;;;;13.48;100.00;101699.00;5536074;32;35399;-71
2022/10/27 15:27:32;;;;;;;;;;;;;;;13.59;100.00;101689.09;5523490;32;36079;-71
2022/10/27 15:30:41;;;;;;;;;;;;;;;13.46;100.00;101693.00;5550018;32;35032;-71
2022/10/27 15:33:46;;;;;;;;;;;;;;;13.39;100.00;101697.28;5550015;32;34877;-70
2022/10/27 15:37:11;;;;;;;;;;;;;;;13.27;100.00;101693.16;5550433;32;34765;-70
2022/10/27 15:40:28;;;;;;;;;;;;;;;13.27;100.00;101700.31;5550055;32;34509;-70
2022/10/27 15:43:33;;;;;;;;;;;;;;;13.25;100.00;101692.50;5523502;32;34687;-71
2022/10/27 15:46:38;;;;;;;;;;;;;;;13.25;100.00;101699.66;5535986;32;36585;-71
2022/10/27 15:49:50;;;;;;;;;;;;;;;13.27;100.00;101698.50;5536390;32;35877;-71
2022/10/27 15:53:06;;;;;;;;;;;;;;;13.27;100.00;101694.97;5535976;32;34389;-71